Mercer County Airport Bluefield US
ICAO: KBLF
IATA: BLF
Category: Medium
Scheduled Services: Yes

Elevation: 2857 ft
TransAlt. 18000 ft.

Airport Communications:
ASOS:132.725
INDIANAPOLIS CNTR:126.575
CTAF:122.9
ELKINS RDO:122.2

KBLF Zoom In..

If you have problems with the map follow the link
https://www.worldairports.se/pages/airport.php?
ICAO=KBLF

Runways:

(A) RW 05 length 4743 ft width 100 ft
---- / hdg 49

(B) RW 23 length 4743 ft width 100 ft
ILS 109.50 / hdg 229

Location; KBLF
Day. 23 / Time. 07.52 Zulu
* Altimeter: 30.20
* Temperature: 07° c. 44.6°f.
* Wind from: 270° Speed 10 kn.
Dewpoint: -02° c.
Visibility: 10 Statute Miles.
Clouds: Clear (automated report).

KBLF 230752Z AUTO 27010KT 10SM CLR 07/M02 A3020 RMK AO2 SLP217 T00721022


Wind From 270°
Speed 10 kn.

 
 
jpsmedia.com for Web Design worldairports.se 2018   terms of use